createdAt,value
2023-11-05T00:04:32.900Z,10.80
2023-11-05T00:09:34.546Z,10.80
2023-11-05T00:14:36.212Z,10.70
2023-11-05T00:19:38.003Z,10.80
2023-11-05T00:24:39.738Z,10.80
2023-11-05T00:29:41.337Z,10.80
2023-11-05T00:34:43.491Z,10.80
2023-11-05T00:39:45.319Z,10.90
2023-11-05T00:44:46.941Z,10.90
2023-11-05T00:49:48.657Z,11.00
2023-11-05T00:54:50.420Z,11.10
2023-11-05T00:59:52.103Z,11.10
2023-11-05T01:04:53.915Z,11.00
2023-11-05T01:09:55.840Z,10.90
2023-11-05T01:14:57.724Z,10.80
2023-11-05T01:19:59.289Z,10.70
2023-11-05T01:25:00.901Z,10.60
2023-11-05T01:30:02.529Z,10.80
2023-11-05T01:35:04.929Z,10.70
2023-11-05T01:40:07.163Z,10.70
2023-11-05T01:45:21.564Z,10.60
2023-11-05T01:50:23.818Z,10.50
2023-11-05T01:55:26.570Z,10.40
2023-11-05T02:00:28.247Z,10.40
2023-11-05T02:05:30.429Z,10.30
2023-11-05T02:10:32.150Z,10.30
2023-11-05T02:15:33.776Z,10.20
2023-11-05T02:20:35.344Z,10.30
2023-11-05T02:25:36.965Z,10.20
2023-11-05T02:30:38.569Z,10.20
2023-11-05T02:35:40.145Z,10.30
2023-11-05T02:40:42.290Z,10.20
2023-11-05T02:45:43.879Z,10.30
2023-11-05T02:50:45.443Z,10.40
2023-11-05T02:55:47.269Z,10.30
2023-11-05T03:00:49.052Z,10.40
2023-11-05T03:05:50.664Z,10.40
2023-11-05T03:10:52.548Z,10.40
2023-11-05T03:15:55.104Z,10.40
2023-11-05T03:20:56.793Z,10.40
2023-11-05T03:25:58.409Z,10.40
2023-11-05T03:30:59.984Z,10.50
2023-11-05T03:36:01.579Z,10.40
2023-11-05T03:41:04.001Z,10.50
2023-11-05T03:46:05.754Z,10.60
2023-11-05T03:51:12.931Z,10.60
2023-11-05T03:56:17.467Z,10.60
2023-11-05T04:01:20.682Z,10.70
2023-11-05T04:06:22.546Z,10.80
2023-11-05T04:11:24.468Z,10.70
2023-11-05T04:16:26.072Z,10.70
2023-11-05T04:21:28.039Z,10.60
2023-11-05T04:26:30.020Z,10.70
2023-11-05T04:31:32.048Z,10.70
2023-11-05T04:36:38.252Z,10.70
2023-11-05T04:41:39.841Z,10.60
2023-11-05T04:46:41.514Z,10.50
2023-11-05T04:51:43.652Z,10.80
2023-11-05T04:56:45.273Z,11.00
2023-11-05T05:01:46.838Z,11.00
2023-11-05T05:06:50.597Z,11.00
2023-11-05T05:11:52.208Z,11.00
2023-11-05T05:16:54.556Z,11.00
2023-11-05T05:21:56.235Z,10.90
2023-11-05T05:26:57.995Z,10.90
2023-11-05T05:31:59.694Z,10.70
2023-11-05T05:37:01.440Z,10.50
2023-11-05T05:42:05.046Z,10.40
2023-11-05T05:47:06.938Z,10.30
2023-11-05T05:52:08.728Z,10.20
2023-11-05T05:57:10.412Z,10.20
2023-11-05T06:02:12.240Z,10.10
2023-11-05T06:07:14.004Z,10.10
2023-11-05T06:12:15.622Z,10.10
2023-11-05T06:17:17.307Z,10.10
2023-11-05T06:22:19.097Z,10.20
2023-11-05T06:27:20.758Z,10.20
2023-11-05T06:32:22.806Z,10.20
2023-11-05T06:37:24.554Z,10.20
2023-11-05T06:42:26.235Z,10.20
2023-11-05T06:47:27.898Z,10.20
2023-11-05T06:52:29.531Z,10.20
2023-11-05T06:57:33.052Z,10.20
2023-11-05T07:02:35.596Z,10.20
2023-11-05T07:07:37.388Z,10.30
2023-11-05T07:12:42.655Z,10.30
2023-11-05T07:17:46.376Z,10.30
2023-11-05T07:22:51.212Z,10.40
2023-11-05T07:27:53.604Z,10.40
2023-11-05T07:32:57.154Z,10.50
2023-11-05T07:37:59.638Z,10.60
2023-11-05T07:43:02.487Z,10.70
2023-11-05T07:48:05.438Z,10.70
2023-11-05T07:53:08.497Z,10.80
2023-11-05T07:58:11.598Z,10.90
2023-11-05T08:03:15.721Z,10.90
2023-11-05T08:08:19.031Z,11.00
2023-11-05T08:13:22.362Z,11.00
2023-11-05T08:18:25.484Z,11.10
2023-11-05T08:23:28.769Z,11.10
2023-11-05T08:28:32.225Z,11.20
2023-11-05T08:33:35.526Z,11.20
2023-11-05T08:38:39.614Z,11.20
2023-11-05T08:43:43.057Z,11.10
2023-11-05T08:48:46.570Z,11.10
2023-11-05T08:53:49.736Z,11.20
2023-11-05T08:58:53.278Z,11.20
2023-11-05T09:03:56.303Z,11.30
2023-11-05T09:08:59.871Z,11.50
2023-11-05T09:14:07.681Z,11.60
2023-11-05T09:19:10.823Z,11.60
2023-11-05T09:24:13.893Z,11.70
2023-11-05T09:29:16.940Z,11.80
2023-11-05T09:34:18.722Z,11.90
2023-11-05T09:39:20.692Z,12.00
2023-11-05T09:44:22.676Z,12.00
2023-11-05T09:49:24.288Z,12.10
2023-11-05T09:54:26.291Z,12.00
2023-11-05T09:59:27.953Z,12.10
2023-11-05T10:04:29.595Z,12.20
2023-11-05T10:09:31.536Z,12.30
2023-11-05T10:14:33.110Z,12.40
2023-11-05T10:19:37.455Z,12.40
2023-11-05T10:24:45.363Z,12.50
2023-11-05T10:29:47.016Z,12.60
2023-11-05T10:34:50.410Z,12.60
2023-11-05T10:39:52.255Z,12.60
2023-11-05T10:44:54.695Z,12.50
2023-11-05T10:49:58.565Z,12.30
2023-11-05T10:55:10.322Z,12.40
2023-11-05T11:00:16.326Z,12.10
2023-11-05T11:05:20.455Z,12.00
2023-11-05T11:10:22.112Z,12.00
2023-11-05T11:15:40.181Z,12.00
2023-11-05T11:20:43.034Z,12.50
2023-11-05T11:26:11.001Z,12.90
2023-11-05T11:31:13.356Z,13.10
2023-11-05T11:36:15.189Z,13.10
2023-11-05T11:41:16.969Z,13.20
2023-11-05T11:46:23.303Z,13.30
2023-11-05T11:51:34.913Z,13.50
2023-11-05T11:56:37.936Z,13.80
2023-11-05T12:01:41.837Z,14.00
2023-11-05T12:06:45.477Z,13.90
2023-11-05T12:11:47.904Z,14.10
2023-11-05T12:16:50.472Z,14.20
2023-11-05T12:21:52.205Z,14.10
2023-11-05T12:26:54.905Z,14.30
2023-11-05T12:31:56.668Z,14.20
2023-11-05T12:36:59.397Z,13.80
2023-11-05T12:42:01.353Z,13.40
2023-11-05T12:47:03.135Z,12.60
2023-11-05T12:52:04.975Z,11.90
2023-11-05T12:57:11.152Z,11.70
2023-11-05T13:02:13.513Z,11.80
2023-11-05T13:07:15.457Z,12.20
2023-11-05T13:12:17.100Z,12.30
2023-11-05T13:17:18.959Z,12.10
2023-11-05T13:22:20.648Z,12.10
2023-11-05T13:27:22.588Z,12.10
2023-11-05T13:32:24.540Z,12.00
2023-11-05T13:37:26.216Z,12.00
2023-11-05T13:42:29.232Z,12.20
2023-11-05T13:47:30.869Z,12.20
2023-11-05T13:52:32.991Z,12.20
2023-11-05T13:57:34.740Z,12.00
2023-11-05T14:02:37.120Z,11.60
2023-11-05T14:07:39.193Z,11.50
2023-11-05T14:12:42.056Z,11.50
2023-11-05T14:17:43.774Z,11.40
2023-11-05T14:22:45.500Z,11.30
2023-11-05T14:27:47.187Z,11.40
2023-11-05T14:32:48.951Z,11.50
2023-11-05T14:37:50.676Z,11.50
2023-11-05T14:42:57.111Z,11.50
2023-11-05T14:47:59.501Z,11.50
2023-11-05T14:53:02.476Z,11.50
2023-11-05T14:58:04.391Z,11.50
2023-11-05T15:03:08.386Z,11.70
2023-11-05T15:08:10.096Z,11.70
2023-11-05T15:13:11.695Z,11.70
2023-11-05T15:18:15.848Z,11.40
2023-11-05T15:23:19.350Z,11.10
2023-11-05T15:28:25.240Z,11.10
2023-11-05T15:33:29.060Z,11.10
2023-11-05T15:38:33.125Z,11.20
2023-11-05T15:43:38.950Z,11.20
2023-11-05T15:48:41.626Z,11.20
2023-11-05T15:53:43.648Z,11.30
2023-11-05T15:58:45.226Z,11.40
2023-11-05T16:03:46.921Z,11.30
2023-11-05T16:08:48.972Z,11.20
2023-11-05T16:13:51.996Z,11.30
2023-11-05T16:18:54.281Z,11.20
2023-11-05T16:23:55.875Z,11.30
2023-11-05T16:28:57.512Z,11.10
2023-11-05T16:33:59.137Z,11.20
2023-11-05T16:39:00.814Z,11.10
2023-11-05T16:44:09.159Z,11.10
2023-11-05T16:49:11.903Z,11.00
2023-11-05T16:54:13.803Z,11.00
2023-11-05T16:59:15.479Z,11.10
2023-11-05T17:04:19.221Z,10.90
2023-11-05T17:09:21.012Z,10.80
2023-11-05T17:14:22.772Z,10.70
2023-11-05T17:19:24.744Z,10.70
2023-11-05T17:24:26.343Z,10.70
2023-11-05T17:29:28.309Z,10.70
2023-11-05T17:34:29.973Z,10.80
2023-11-05T17:39:34.394Z,10.80
2023-11-05T17:44:36.411Z,10.70
2023-11-05T17:49:38.822Z,10.60
2023-11-05T17:54:40.958Z,10.60
2023-11-05T17:59:42.563Z,10.70
2023-11-05T18:04:44.174Z,10.80
2023-11-05T18:09:45.826Z,10.80
2023-11-05T18:14:49.229Z,10.70
2023-11-05T18:19:52.104Z,10.80
2023-11-05T18:24:53.781Z,10.90
2023-11-05T18:29:55.352Z,10.80
2023-11-05T18:34:56.995Z,10.80
2023-11-05T18:39:58.583Z,11.10
2023-11-05T18:45:00.688Z,11.00
2023-11-05T18:50:02.894Z,11.00
2023-11-05T18:55:04.955Z,10.70
2023-11-05T19:00:09.369Z,10.90
2023-11-05T19:05:12.320Z,11.00
2023-11-05T19:10:14.322Z,10.80
2023-11-05T19:20:17.711Z,10.70
2023-11-05T19:25:19.394Z,10.60
2023-11-05T19:30:21.063Z,10.40
2023-11-05T19:35:22.692Z,10.30
2023-11-05T19:40:24.315Z,10.20
2023-11-05T19:45:25.979Z,10.10
2023-11-05T19:50:27.826Z,10.60
2023-11-05T19:55:29.562Z,10.90
2023-11-05T20:00:31.494Z,10.80
2023-11-05T20:05:33.210Z,11.00
2023-11-05T20:10:35.135Z,11.10
2023-11-05T20:15:36.906Z,11.10
2023-11-05T20:20:40.709Z,11.10
2023-11-05T20:25:42.372Z,10.90
2023-11-05T20:30:44.603Z,10.90
2023-11-05T20:35:46.523Z,10.90
2023-11-05T20:40:48.697Z,10.70
2023-11-05T20:45:50.540Z,10.70
2023-11-05T20:50:52.301Z,10.50
2023-11-05T20:55:54.378Z,10.30
2023-11-05T21:00:58.474Z,10.20
2023-11-05T21:06:01.392Z,10.30
2023-11-05T21:11:08.962Z,10.40
2023-11-05T21:16:11.448Z,10.50
2023-11-05T21:21:13.132Z,10.40
2023-11-05T21:26:14.951Z,10.50
2023-11-05T21:31:16.700Z,10.40
2023-11-05T21:36:18.411Z,10.40
2023-11-05T21:41:20.683Z,10.40
2023-11-05T21:46:22.309Z,10.50
2023-11-05T21:51:24.026Z,10.50
2023-11-05T21:56:25.656Z,10.50
2023-11-05T22:01:28.929Z,10.30
2023-11-05T22:06:30.607Z,10.30
2023-11-05T22:11:32.263Z,10.40
2023-11-05T22:16:33.849Z,10.30
2023-11-05T22:21:35.513Z,10.20
2023-11-05T22:26:38.206Z,10.10
2023-11-05T22:31:40.856Z,10.10
2023-11-05T22:36:42.756Z,10.20
2023-11-05T22:41:44.426Z,9.90
2023-11-05T22:46:46.076Z,10.00
2023-11-05T22:51:48.112Z,9.90
2023-11-05T22:56:50.799Z,9.90
2023-11-05T23:01:52.402Z,9.90
2023-11-05T23:06:53.986Z,9.90
2023-11-05T23:11:55.567Z,9.90
2023-11-05T23:16:57.154Z,10.20
2023-11-05T23:21:59.133Z,10.20
2023-11-05T23:27:00.710Z,10.20
2023-11-05T23:32:02.308Z,10.40
2023-11-05T23:37:04.429Z,10.40
2023-11-05T23:42:06.154Z,10.40
2023-11-05T23:47:08.449Z,10.50
2023-11-05T23:52:10.046Z,10.70
2023-11-05T23:57:11.648Z,10.60
